| time (UTC) | temp F | wind direction | speed knots | gust knots | rain 1hr in | rain 24hr in | rain mn in | humidity % | barometer mb |
| 20260505193600 | 48 | 4 | 2.6 | 12.2 | 0.00 | 0.00 | 0.00 | 46 | 1014.9 |
| 20260505192400 | 48 | 341 | 2.6 | 12.2 | 0.00 | 0.00 | 0.00 | 47 | 1014.9 |
| 20260505191200 | 49 | 347 | 3.5 | 11.3 | 0.00 | 0.00 | 0.00 | 42 | 1014.8 |
| 20260505190001 | 49 | 22 | 1.7 | 7.8 | 0.00 | 0.00 | 0.00 | 45 | 1015.2 |
| 20260505184800 | 48 | 357 | 3.5 | 10.4 | 0.00 | 0.00 | 0.00 | 45 | 1015.2 |
| 20260505183600 | 47 | 6 | 1.7 | 7.8 | 0.00 | 0.00 | 0.00 | 46 | 1015.3 |
| 20260505182400 | 46 | 339 | 1.7 | 8.7 | 0.00 | 0.00 | 0.00 | 45 | 1015.5 |
| 20260505181201 | 46 | 7 | 0.9 | 4.3 | 0.00 | 0.00 | 0.00 | 48 | 1015.5 |
| 20260505180000 | 45 | 1 | 0.9 | 7.8 | 0.00 | 0.00 | 0.00 | 47 | 1015.7 |
| 20260505173601 | 46 | 26 | 2.6 | 10.4 | 0.00 | 0.00 | 0.00 | 49 | 1015.8 |
| 20260505171200 | 48 | 355 | 2.6 | 10.4 | 0.00 | 0.00 | 0.00 | 49 | 1015.8 |
| 20260505170001 | 46 | 354 | 2.6 | 10.4 | 0.00 | 0.00 | 0.00 | 49 | 1015.8 |
| 20260505164800 | 46 | 24 | 3.5 | 10.4 | 0.00 | 0.00 | 0.00 | 47 | 1015.9 |
| 20260505163600 | 46 | 1 | 3.5 | 10.4 | 0.00 | 0.00 | 0.00 | 48 | 1015.7 |
| 20260505162401 | 46 | 20 | 3.5 | 14.8 | 0.00 | 0.00 | 0.00 | 50 | 1015.8 |
| 20260505161200 | 46 | 14 | 3.5 | 13.9 | 0.00 | 0.00 | 0.00 | 47 | 1015.7 |
| 20260505152400 | 43 | 18 | 3.5 | 13.9 | 0.00 | 0.00 | 0.00 | 49 | 1016.2 |
| 20260505124801 | 34 | 0 | 0.0 | 0.0 | 0.00 | 0.00 | 0.00 | 80 | 1015.7 |
| 20260505122401 | 35 | 0 | 0.0 | 0.0 | 0.00 | 0.00 | 0.00 | 78 | 1015.6 |
| 20260505121200 | 35 | 287 | 1.7 | 5.2 | 0.00 | 0.00 | 0.00 | 78 | 1015.6 |
| 20260505120000 | 35 | 294 | 0.9 | 5.2 | 0.00 | 0.00 | 0.00 | 79 | 1015.7 |
| 20260505114801 | 35 | 301 | 1.7 | 7.0 | 0.00 | 0.00 | 0.00 | 80 | 1015.5 |
| 20260505113601 | 33 | 288 | 0.0 | 1.7 | 0.00 | 0.00 | 0.00 | 83 | 1015.6 |
| 20260505112400 | 32 | 0 | 0.0 | 0.0 | 0.00 | 0.00 | 0.00 | 82 | 1015.6 |
| 20260505111201 | 33 | 0 | 0.0 | 0.0 | 0.00 | 0.00 | 0.00 | 81 | 1015.5 |
| 20260505101201 | 36 | 345 | 0.0 | 2.6 | 0.00 | 0.00 | 0.00 | 74 | 1015.6 |
| 20260505100001 | 36 | 3 | 0.9 | 6.1 | 0.00 | 0.00 | 0.00 | 73 | 1015.4 |
| 20260505094800 | 36 | 6 | 0.9 | 7.0 | 0.00 | 0.00 | 0.00 | 72 | 1015.4 |
| 20260505093601 | 37 | 13 | 0.9 | 5.2 | 0.00 | 0.00 | 0.00 | 70 | 1015.2 |
| 20260505092400 | 37 | 22 | 1.7 | 5.2 | 0.00 | 0.00 | 0.00 | 70 | 1015.1 |
| 20260505091201 | 38 | 28 | 1.7 | 4.3 | 0.00 | 0.00 | 0.00 | 69 | 1014.9 |
| 20260505084801 | 40 | 43 | 1.7 | 7.0 | 0.00 | 0.00 | 0.00 | 67 | 1014.7 |
| 20260505081201 | 44 | 0 | 0.0 | 0.0 | 0.00 | 0.00 | 0.00 | 57 | 1014.3 |
| 20260505080001 | 45 | 302 | 0.9 | 5.2 | 0.00 | 0.00 | 0.00 | 55 | 1014.3 |
| 20260505073601 | 45 | 309 | 1.7 | 7.0 | 0.00 | 0.00 | 0.00 | 54 | 1014.3 |
| 20260505071200 | 46 | 283 | 1.7 | 6.1 | 0.00 | 0.00 | 0.00 | 56 | 1014.4 |
| 20260505063601 | 45 | 0 | 0.0 | 0.0 | 0.00 | 0.00 | 0.00 | 61 | 1014.4 |
| 20260505062400 | 45 | 0 | 0.0 | 0.0 | 0.00 | 0.00 | 0.00 | 66 | 1014.4 |
| 20260505061201 | 45 | 0 | 0.0 | 0.0 | 0.00 | 0.00 | 0.00 | 63 | 1014.5 |
| 20260505060002 | 46 | 3 | 1.7 | 6.1 | 0.00 | 0.00 | 0.00 | 63 | 1014.6 |
| 20260505054801 | 46 | 32 | 0.9 | 7.0 | 0.00 | 0.00 | 0.00 | 63 | 1014.5 |
| 20260505053601 | 47 | 355 | 0.0 | 3.5 | 0.00 | 0.00 | 0.00 | 61 | 1014.4 |
| 20260505052401 | 47 | 315 | 1.7 | 6.1 | 0.00 | 0.00 | 0.00 | 60 | 1014.2 |
| 20260505051201 | 47 | 325 | 1.7 | 8.7 | 0.00 | 0.00 | 0.00 | 61 | 1013.9 |
| 20260505041201 | 47 | 0 | 0.0 | 0.0 | 0.00 | 0.00 | 0.00 | 63 | 1013.2 |
| 20260505040001 | 47 | 342 | 0.0 | 3.5 | 0.00 | 0.00 | 0.00 | 62 | 1013.1 |
| 20260505034801 | 47 | 0 | 0.0 | 0.0 | 0.00 | 0.00 | 0.00 | 62 | 1012.9 |
| 20260505033601 | 47 | 341 | 0.0 | 3.5 | 0.00 | 0.00 | 0.00 | 61 | 1012.7 |
| 20260505032401 | 48 | 328 | 0.0 | 1.7 | 0.00 | 0.00 | 0.00 | 60 | 1012.6 |
| 20260505031201 | 48 | 328 | 0.0 | 2.6 | 0.00 | 0.00 | 0.00 | 59 | 1012.5 |
| 20260505030002 | 48 | 0 | 0.0 | 0.0 | 0.00 | 0.00 | 0.00 | 58 | 1012.6 |
| 20260505024801 | 48 | 0 | 0.0 | 0.0 | 0.00 | 0.00 | 0.00 | 57 | 1012.5 |
| 20260505023601 | 48 | 0 | 0.0 | 0.0 | 0.00 | 0.00 | 0.00 | 57 | 1012.2 |
| 20260505020002 | 50 | 0 | 0.0 | 0.0 | 0.00 | 0.00 | 0.00 | 54 | 1012.1 |
| 20260505014801 | 50 | 16 | 0.0 | 3.5 | 0.00 | 0.00 | 0.00 | 52 | 1012.1 |
| 20260505013601 | 50 | 2 | 0.9 | 5.2 | 0.00 | 0.00 | 0.00 | 51 | 1012.0 |
| 20260505012401 | 51 | 1 | 0.0 | 2.6 | 0.00 | 0.00 | 0.00 | 51 | 1012.0 |
| 20260505011201 | 51 | 339 | 0.9 | 8.7 | 0.00 | 0.00 | 0.00 | 50 | 1012.0 |
| 20260505004801 | 52 | 340 | 0.9 | 9.6 | 0.00 | 0.00 | 0.00 | 50 | 1012.1 |
| 20260505002401 | 52 | 317 | 1.7 | 6.1 | 0.00 | 0.00 | 0.00 | 49 | 1012.1 |
| 20260505000001 | 52 | 305 | 1.7 | 7.0 | 0.00 | 0.00 | 0.00 | 50 | 1012.2 |
| 20260504234801 | 52 | 307 | 1.7 | 9.6 | 0.00 | 0.00 | 0.00 | 52 | 1012.2 |
| 20260504233602 | 52 | 314 | 1.7 | 8.7 | 0.00 | 0.00 | 0.00 | 51 | 1012.0 |
| 20260504232402 | 52 | 323 | 1.7 | 7.0 | 0.00 | 0.00 | 0.00 | 49 | 1012.0 |
| 20260504231201 | 53 | 320 | 1.7 | 7.8 | 0.00 | 0.00 | 0.00 | 51 | 1011.9 |
| 20260504230001 | 53 | 312 | 1.7 | 7.8 | 0.00 | 0.00 | 0.00 | 51 | 1012.1 |
| 20260504224801 | 53 | 320 | 3.5 | 12.2 | 0.00 | 0.00 | 0.00 | 49 | 1012.0 |
| 20260504222401 | 54 | 324 | 3.5 | 12.2 | 0.00 | 0.00 | 0.00 | 50 | 1012.1 |
| 20260504221201 | 54 | 328 | 2.6 | 13.0 | 0.00 | 0.00 | 0.00 | 50 | 1012.1 |
| 20260504220001 | 54 | 342 | 2.6 | 7.8 | 0.00 | 0.00 | 0.00 | 51 | 1012.2 |
| 20260504214802 | 54 | 340 | 3.5 | 11.3 | 0.00 | 0.00 | 0.00 | 50 | 1012.1 |
| 20260504213601 | 54 | 343 | 3.5 | 9.6 | 0.00 | 0.00 | 0.00 | 48 | 1012.1 |
| 20260504212401 | 55 | 346 | 2.6 | 8.7 | 0.00 | 0.00 | 0.00 | 48 | 1012.2 |
| 20260504210002 | 52 | 300 | 2.6 | 7.8 | 0.00 | 0.00 | 0.00 | 54 | 1012.8 |
| 20260504202402 | 52 | 312 | 1.7 | 8.7 | 0.00 | 0.00 | 0.00 | 52 | 1013.0 |
| 20260504201201 | 52 | 343 | 2.6 | 11.3 | 0.00 | 0.00 | 0.00 | 52 | 1012.9 |
| 20260504200002 | 52 | 324 | 3.5 | 10.4 | 0.00 | 0.00 | 0.00 | 52 | 1013.0 |
| 20260504194802 | 52 | 331 | 2.6 | 12.2 | 0.00 | 0.00 | 0.00 | 52 | 1013.1 |